Time;durP1;ratioP1;P1;durP2;ratioP2;P2;SDS_P1;SDS_P2;PMS_P1;PMS_P2;Temp;Humidity;BMP_temperature;BMP_pressure;BME280_temperature;BME280_humidity;BME280_pressure;Samples;Min_cycle;Max_cycle;Signal;HPM_P1;HPM_P2
2021/11/26 00:00:54;;;;;;;9.50;1.17;;;9.70;96.60;;;;;;5077117;28;20417;-70
2021/11/26 00:03:20;;;;;;;9.48;1.25;;;9.70;96.30;;;;;;5096303;28;20431;-70
2021/11/26 00:05:45;;;;;;;9.33;1.27;;;9.70;96.10;;;;;;5079794;28;22377;-70
2021/11/26 00:08:11;;;;;;;8.15;1.25;;;9.70;96.30;;;;;;5098757;28;20476;-70
2021/11/26 00:10:37;;;;;;;7.55;1.20;;;9.80;96.10;;;;;;5086416;28;20450;-69
2021/11/26 00:13:06;;;;;;;7.78;1.00;;;9.80;96.00;;;;;;5094638;28;20421;-70
2021/11/26 00:18:04;;;;;;;8.95;1.20;;;9.80;96.40;;;;;;5102176;28;20526;-70
2021/11/26 00:20:30;;;;;;;10.10;1.27;;;9.80;95.80;;;;;;5060254;28;20428;-69
2021/11/26 00:22:56;;;;;;;10.57;1.53;;;9.80;95.40;;;;;;5100817;28;20506;-69
2021/11/26 00:25:22;;;;;;;8.52;1.40;;;9.80;95.20;;;;;;5098651;28;20495;-70
2021/11/26 00:27:48;;;;;;;11.37;1.57;;;9.80;95.10;;;;;;5101415;28;20919;-71
2021/11/26 00:30:14;;;;;;;10.52;1.60;;;9.80;95.50;;;;;;5086135;28;20418;-70
2021/11/26 00:32:40;;;;;;;9.23;1.40;;;9.70;94.70;;;;;;5096243;28;20416;-70
2021/11/26 00:35:06;;;;;;;8.68;1.60;;;9.70;94.30;;;;;;5097035;28;20421;-70
2021/11/26 00:37:32;;;;;;;5.82;1.00;;;9.70;93.90;;;;;;5099506;28;20520;-70
2021/11/26 00:39:58;;;;;;;10.13;1.40;;;9.70;93.60;;;;;;5100405;28;20424;-69
2021/11/26 00:42:24;;;;;;;6.63;1.00;;;9.70;93.30;;;;;;5099295;28;20471;-70
2021/11/26 00:44:49;;;;;;;8.88;1.40;;;9.60;93.30;;;;;;5102118;28;20428;-69
2021/11/26 00:47:15;;;;;;;8.88;1.20;;;9.70;93.00;;;;;;5101393;28;20526;-70
2021/11/26 00:49:40;;;;;;;5.17;1.00;;;9.70;92.90;;;;;;5101329;28;20463;-69
2021/11/26 00:52:06;;;;;;;9.50;1.50;;;9.70;93.30;;;;;;5103543;28;20412;-69
2021/11/26 00:54:32;;;;;;;12.73;1.63;;;9.70;93.90;;;;;;5095047;28;20465;-70
2021/11/26 00:56:57;;;;;;;13.38;1.98;;;9.60;95.00;;;;;;5097829;28;20494;-70
2021/11/26 00:59:23;;;;;;;17.00;1.83;;;9.50;95.80;;;;;;5083749;28;20495;-70
2021/11/26 01:01:49;;;;;;;13.83;2.07;;;9.50;96.30;;;;;;5097347;28;20400;-69
2021/11/26 01:04:14;;;;;;;15.07;2.10;;;9.40;96.60;;;;;;5104503;28;20408;-69
2021/11/26 01:06:40;;;;;;;15.03;1.73;;;9.40;96.80;;;;;;5101754;28;20417;-69
2021/11/26 01:09:06;;;;;;;15.40;2.10;;;9.40;97.10;;;;;;5102332;28;20416;-70
2021/11/26 01:11:31;;;;;;;14.30;1.52;;;9.40;97.30;;;;;;5098926;28;20430;-70
2021/11/26 01:13:57;;;;;;;14.87;1.63;;;9.30;97.60;;;;;;5088425;28;20406;-69
2021/11/26 01:16:23;;;;;;;13.13;2.00;;;9.30;97.90;;;;;;5071989;28;20404;-70
2021/11/26 01:18:48;;;;;;;6.77;1.17;;;9.30;98.20;;;;;;5100863;28;20421;-70
2021/11/26 01:21:14;;;;;;;8.65;1.35;;;9.30;98.40;;;;;;5095493;28;20405;-70
2021/11/26 01:23:40;;;;;;;10.87;1.47;;;9.20;98.40;;;;;;5103198;28;20435;-69
2021/11/26 01:26:06;;;;;;;10.63;1.45;;;9.10;98.30;;;;;;5097093;28;20899;-69
2021/11/26 01:28:32;;;;;;;8.40;1.00;;;9.10;98.60;;;;;;5093465;28;20411;-69
2021/11/26 01:30:58;;;;;;;7.10;1.13;;;9.00;98.70;;;;;;5088976;28;20460;-70
2021/11/26 01:33:25;;;;;;;9.02;1.33;;;9.00;99.40;;;;;;5085343;28;20415;-69
2021/11/26 01:35:53;;;;;;;8.07;1.00;;;9.00;99.60;;;;;;5102377;28;20884;-69
2021/11/26 01:38:20;;;;;;;8.32;1.00;;;9.10;99.90;;;;;;5094809;28;20417;-70
2021/11/26 01:40:46;;;;;;;5.95;0.98;;;9.10;99.90;;;;;;5083805;28;20431;-70
2021/11/26 01:43:14;;;;;;;6.18;1.15;;;9.10;99.90;;;;;;5096313;28;20830;-70
2021/11/26 01:46:08;;;;;;;4.95;0.88;;;9.20;99.90;;;;;;5099559;28;20430;-69
2021/11/26 01:48:34;;;;;;;6.75;1.10;;;9.20;99.90;;;;;;5077895;28;20410;-70
2021/11/26 01:51:00;;;;;;;7.32;0.90;;;9.20;99.90;;;;;;5100771;28;20428;-69
2021/11/26 01:53:26;;;;;;;7.90;1.00;;;9.20;99.90;;;;;;5099003;28;20479;-70
2021/11/26 01:55:52;;;;;;;7.03;1.10;;;9.20;99.90;;;;;;5076854;28;20437;-70
2021/11/26 01:58:19;;;;;;;6.72;1.38;;;9.20;99.90;;;;;;5093118;28;21027;-70
2021/11/26 02:00:45;;;;;;;9.18;1.20;;;9.20;99.90;;;;;;5083998;28;20451;-71
2021/11/26 02:03:11;;;;;;;5.15;1.17;;;9.20;99.80;;;;;;5100968;28;20910;-69
2021/11/26 02:05:37;;;;;;;5.05;1.20;;;9.20;99.50;;;;;;5103674;28;20400;-70
2021/11/26 02:08:03;;;;;;;6.40;1.08;;;9.20;99.60;;;;;;5103202;28;20400;-70
2021/11/26 02:10:29;;;;;;;12.13;1.00;;;9.20;99.60;;;;;;5107681;28;20416;-69
2021/11/26 02:12:55;;;;;;;10.18;1.20;;;9.20;99.70;;;;;;5089215;28;20415;-70
2021/11/26 02:15:25;;;;;;;7.47;1.20;;;9.20;99.90;;;;;;5105067;28;20415;-70
2021/11/26 02:17:52;;;;;;;7.80;1.00;;;9.20;99.70;;;;;;5105575;28;20426;-70
2021/11/26 02:20:21;;;;;;;7.63;1.13;;;9.10;99.60;;;;;;5103240;28;20897;-69
2021/11/26 02:22:47;;;;;;;10.18;1.42;;;9.10;99.60;;;;;;5103594;28;20423;-70
2021/11/26 02:25:13;;;;;;;8.82;1.23;;;9.10;99.50;;;;;;5082478;28;20402;-70
2021/11/26 02:27:39;;;;;;;10.75;1.70;;;9.00;99.70;;;;;;5099722;28;20477;-68
2021/11/26 02:30:17;;;;;;;9.98;1.80;;;9.00;99.80;;;;;;5083016;28;20489;-70
2021/11/26 02:32:56;;;;;;;13.38;1.58;;;9.00;99.60;;;;;;5082767;28;20415;-70
2021/11/26 02:35:23;;;;;;;11.90;1.65;;;9.10;99.90;;;;;;5103218;28;20502;-71
2021/11/26 02:37:48;;;;;;;11.20;1.70;;;9.10;99.90;;;;;;5088201;28;20412;-70
2021/11/26 02:40:17;;;;;;;12.83;1.77;;;9.10;99.80;;;;;;5103874;28;20890;-71
2021/11/26 02:42:43;;;;;;;13.00;2.10;;;9.10;99.40;;;;;;5101200;28;20473;-71
2021/11/26 02:45:12;;;;;;;16.40;1.90;;;9.10;99.00;;;;;;5102590;28;20803;-70
2021/11/26 02:47:38;;;;;;;16.40;2.10;;;9.10;98.90;;;;;;5084198;28;20410;-70
2021/11/26 02:50:07;;;;;;;13.25;2.20;;;9.10;98.40;;;;;;5078290;28;20428;-71
2021/11/26 02:52:34;;;;;;;16.77;2.08;;;9.10;98.30;;;;;;5103020;28;20444;-68
2021/11/26 02:55:00;;;;;;;12.68;1.98;;;9.20;98.00;;;;;;5106802;28;20419;-68
2021/11/26 02:57:26;;;;;;;16.40;2.78;;;9.20;97.70;;;;;;5103179;28;20469;-69
2021/11/26 02:59:52;;;;;;;11.90;2.00;;;9.20;97.70;;;;;;5102658;28;20412;-68
2021/11/26 03:02:17;;;;;;;13.88;2.15;;;9.20;97.50;;;;;;5083158;28;20407;-69
2021/11/26 03:04:43;;;;;;;14.23;2.20;;;9.30;97.20;;;;;;5078002;28;20474;-69
2021/11/26 03:07:09;;;;;;;13.67;2.10;;;9.30;96.60;;;;;;5105577;28;20400;-69
2021/11/26 03:09:36;;;;;;;14.90;2.43;;;9.20;96.70;;;;;;5088227;28;20469;-69
2021/11/26 03:12:03;;;;;;;15.68;2.85;;;9.20;97.00;;;;;;5081548;28;20416;-68
2021/11/26 03:14:28;;;;;;;15.63;2.60;;;9.20;96.10;;;;;;5106438;28;20441;-69
2021/11/26 03:16:54;;;;;;;17.93;2.73;;;9.20;95.60;;;;;;5100627;28;20416;-69
2021/11/26 03:19:20;;;;;;;14.93;2.72;;;9.20;95.80;;;;;;5101743;28;20979;-69
2021/11/26 03:21:45;;;;;;;17.73;2.67;;;9.20;95.20;;;;;;5099229;28;20412;-70
2021/11/26 03:24:11;;;;;;;19.10;2.63;;;9.20;94.90;;;;;;5100378;28;20406;-70
2021/11/26 03:26:37;;;;;;;17.33;2.97;;;9.20;94.70;;;;;;5104037;28;20425;-69
2021/11/26 03:29:02;;;;;;;12.37;2.63;;;9.20;94.40;;;;;;5105945;28;20413;-69
2021/11/26 03:31:28;;;;;;;17.33;2.40;;;9.10;94.10;;;;;;5103549;28;20991;-70
2021/11/26 03:33:54;;;;;;;18.83;2.55;;;9.10;93.70;;;;;;5104127;28;20947;-68
2021/11/26 03:36:19;;;;;;;19.17;2.77;;;9.10;93.10;;;;;;5085667;28;20404;-69
2021/11/26 03:38:45;;;;;;;18.97;2.30;;;9.10;93.10;;;;;;5104396;28;20404;-69
2021/11/26 03:41:11;;;;;;;19.65;2.72;;;9.10;92.90;;;;;;5087540;28;20414;-69
2021/11/26 03:43:37;;;;;;;15.88;2.53;;;9.10;92.80;;;;;;5104147;28;20422;-70
2021/11/26 03:46:03;;;;;;;15.40;2.33;;;9.10;92.40;;;;;;5083796;28;20413;-69
2021/11/26 03:48:29;;;;;;;15.38;2.40;;;9.10;92.60;;;;;;5103216;28;20404;-70
2021/11/26 03:50:54;;;;;;;13.25;2.35;;;9.10;92.40;;;;;;5104487;28;20411;-69
2021/11/26 03:53:20;;;;;;;15.63;2.67;;;9.10;91.80;;;;;;5099147;28;20416;-69
2021/11/26 03:55:47;;;;;;;17.52;2.92;;;9.10;91.40;;;;;;5102996;28;20814;-69
2021/11/26 03:58:12;;;;;;;15.52;2.65;;;9.00;91.40;;;;;;5102138;28;20414;-69
2021/11/26 04:00:38;;;;;;;15.53;2.30;;;9.00;90.90;;;;;;5105746;28;20412;-69
2021/11/26 04:03:04;;;;;;;13.48;2.38;;;9.00;90.90;;;;;;5086917;28;20490;-69
2021/11/26 04:05:30;;;;;;;12.50;2.33;;;9.00;90.80;;;;;;5104567;28;20499;-69
2021/11/26 04:07:55;;;;;;;10.67;2.23;;;9.00;90.90;;;;;;5102533;28;20531;-69
2021/11/26 04:10:21;;;;;;;15.23;2.80;;;9.00;90.90;;;;;;5102686;28;20445;-70
2021/11/26 04:12:49;;;;;;;14.43;2.53;;;9.00;90.80;;;;;;5102464;28;20497;-68
2021/11/26 04:15:15;;;;;;;15.15;2.70;;;8.90;90.50;;;;;;5104820;28;20446;-69
2021/11/26 04:17:45;;;;;;;15.48;2.53;;;8.90;89.80;;;;;;5095690;28;20423;-69
2021/11/26 04:20:11;;;;;;;13.15;2.45;;;8.90;89.30;;;;;;5095249;28;20418;-68
2021/11/26 04:22:38;;;;;;;14.20;2.70;;;8.90;88.70;;;;;;5081491;28;21004;-69
2021/11/26 04:25:05;;;;;;;10.55;2.42;;;8.80;87.10;;;;;;5099833;28;20864;-69
2021/11/26 04:27:31;;;;;;;13.85;2.90;;;8.80;87.10;;;;;;5100744;28;20498;-70
2021/11/26 04:29:57;;;;;;;16.17;2.50;;;8.80;87.60;;;;;;5101429;28;20487;-71
2021/11/26 04:32:25;;;;;;;14.37;2.07;;;8.80;87.10;;;;;;5098379;28;20400;-70
2021/11/26 04:34:51;;;;;;;13.68;2.17;;;8.80;86.50;;;;;;5101772;28;20412;-71
2021/11/26 04:37:17;;;;;;;12.33;2.53;;;8.80;86.80;;;;;;5102641;28;20996;-70
2021/11/26 04:39:43;;;;;;;12.93;2.50;;;8.80;87.10;;;;;;5105211;28;20531;-69
2021/11/26 04:42:10;;;;;;;16.48;3.15;;;8.80;87.80;;;;;;5096063;28;20499;-70
2021/11/26 04:44:36;;;;;;;14.27;2.40;;;8.80;86.50;;;;;;5099458;28;20421;-70
2021/11/26 04:47:01;;;;;;;13.60;2.70;;;8.80;86.90;;;;;;5097273;28;20501;-69
2021/11/26 04:49:27;;;;;;;15.47;2.47;;;8.70;86.70;;;;;;5104037;28;20504;-70
2021/11/26 04:51:53;;;;;;;14.05;2.67;;;8.80;87.00;;;;;;5091798;28;21295;-70
2021/11/26 04:54:18;;;;;;;12.73;2.17;;;8.80;87.50;;;;;;5094555;28;20420;-70
2021/11/26 04:56:44;;;;;;;15.52;2.60;;;8.80;88.20;;;;;;5101909;28;20408;-70
2021/11/26 04:59:10;;;;;;;12.00;2.53;;;8.80;87.20;;;;;;5100981;28;20454;-70
2021/11/26 05:01:36;;;;;;;11.10;1.90;;;8.70;85.90;;;;;;5100469;28;20495;-71
2021/11/26 05:04:01;;;;;;;13.40;2.08;;;8.80;84.90;;;;;;5100981;28;20507;-69
2021/11/26 05:06:27;;;;;;;12.50;2.20;;;8.70;84.70;;;;;;5075679;28;20441;-70
2021/11/26 05:08:54;;;;;;;10.45;2.00;;;8.70;84.30;;;;;;5104284;28;20417;-69
2021/11/26 05:11:19;;;;;;;11.20;1.92;;;8.70;82.90;;;;;;5102321;28;20963;-70
2021/11/26 05:13:46;;;;;;;11.60;1.70;;;8.70;81.30;;;;;;5101225;28;20448;-70
2021/11/26 05:16:13;;;;;;;5.80;1.60;;;8.70;81.80;;;;;;5100669;28;20819;-68
2021/11/26 05:18:40;;;;;;;10.40;1.80;;;8.70;80.70;;;;;;5101608;28;21168;-69
2021/11/26 05:21:07;;;;;;;9.20;1.65;;;8.70;80.60;;;;;;5082313;28;20480;-69
2021/11/26 05:23:32;;;;;;;10.30;1.65;;;8.60;80.90;;;;;;5065360;28;20414;-68
2021/11/26 05:25:58;;;;;;;8.63;1.50;;;8.60;80.70;;;;;;5100551;28;20963;-69
2021/11/26 05:28:26;;;;;;;9.07;1.60;;;8.60;80.40;;;;;;5081031;28;20436;-71
2021/11/26 05:30:51;;;;;;;8.98;1.63;;;8.60;80.40;;;;;;5095017;28;20412;-68
2021/11/26 05:33:17;;;;;;;9.90;1.63;;;8.60;80.60;;;;;;5081547;28;20925;-69
2021/11/26 05:35:43;;;;;;;11.30;1.60;;;8.60;79.90;;;;;;5101629;28;20408;-69
2021/11/26 05:38:09;;;;;;;8.13;1.40;;;8.60;79.50;;;;;;5085009;28;20460;-69
2021/11/26 05:40:35;;;;;;;14.68;2.05;;;8.60;79.90;;;;;;5099292;28;20425;-69
2021/11/26 05:43:00;;;;;;;8.20;1.70;;;8.50;80.00;;;;;;5089350;28;20414;-70
2021/11/26 05:45:26;;;;;;;13.47;1.70;;;8.50;79.10;;;;;;5106510;28;20922;-69
2021/11/26 05:47:52;;;;;;;8.02;1.50;;;8.50;78.00;;;;;;5088124;28;20421;-69
2021/11/26 05:50:19;;;;;;;8.80;1.52;;;8.50;78.60;;;;;;5071457;28;20409;-69
2021/11/26 05:52:45;;;;;;;7.35;1.55;;;8.50;78.10;;;;;;5104709;28;20411;-69
2021/11/26 05:55:15;;;;;;;8.63;1.90;;;8.50;78.10;;;;;;5105401;28;20418;-69
2021/11/26 05:57:41;;;;;;;12.55;1.63;;;8.50;78.50;;;;;;5104338;28;20415;-69
2021/11/26 06:00:09;;;;;;;8.05;1.60;;;8.50;79.00;;;;;;5100347;28;20408;-70
2021/11/26 06:02:35;;;;;;;9.20;1.58;;;8.40;78.80;;;;;;5090074;28;20407;-69
2021/11/26 06:05:01;;;;;;;11.45;1.77;;;8.50;79.50;;;;;;5098838;28;20487;-69
2021/11/26 06:07:27;;;;;;;9.23;1.73;;;8.40;79.40;;;;;;5109737;28;20442;-68
2021/11/26 06:09:52;;;;;;;10.60;1.65;;;8.40;79.30;;;;;;5104385;28;20416;-68
2021/11/26 06:12:18;;;;;;;7.77;1.70;;;8.40;80.20;;;;;;5104892;28;20446;-69
2021/11/26 06:14:44;;;;;;;11.73;1.80;;;8.40;81.00;;;;;;5100545;28;20431;-70
2021/11/26 06:17:09;;;;;;;11.10;1.80;;;8.40;81.70;;;;;;5108929;28;20399;-69
2021/11/26 06:19:35;;;;;;;11.48;1.70;;;8.40;81.90;;;;;;5106890;28;20485;-69
2021/11/26 06:22:00;;;;;;;8.90;1.77;;;8.40;82.60;;;;;;5076297;28;20485;-70
2021/11/26 06:24:27;;;;;;;7.28;1.70;;;8.40;83.30;;;;;;5109457;28;20807;-70
2021/11/26 06:26:52;;;;;;;12.85;1.83;;;8.00;84.30;;;;;;5105683;28;20204;-69
2021/11/26 06:29:18;;;;;;;10.05;1.90;;;7.80;85.40;;;;;;5108537;28;20496;-69
2021/11/26 06:31:44;;;;;;;12.53;1.60;;;8.00;86.40;;;;;;5107405;28;20392;-69
2021/11/26 06:34:10;;;;;;;10.43;1.80;;;8.20;86.10;;;;;;5107514;28;20412;-69
2021/11/26 06:36:37;;;;;;;11.03;1.90;;;8.30;86.20;;;;;;5102899;28;20393;-68
2021/11/26 06:39:03;;;;;;;8.75;1.92;;;8.40;86.40;;;;;;5105732;28;20408;-69
2021/11/26 06:41:29;;;;;;;8.73;1.63;;;8.40;87.30;;;;;;5090582;28;20399;-69
2021/11/26 06:43:54;;;;;;;9.20;1.88;;;8.40;87.80;;;;;;5106769;28;20896;-69
2021/11/26 06:46:20;;;;;;;12.43;1.90;;;8.50;89.20;;;;;;5107830;28;20979;-68
2021/11/26 06:48:45;;;;;;;8.53;1.73;;;8.50;89.20;;;;;;5106396;28;21210;-71
2021/11/26 06:51:11;;;;;;;11.88;1.88;;;8.50;89.60;;;;;;5108868;28;20408;-69
2021/11/26 06:53:37;;;;;;;9.77;1.50;;;8.50;90.00;;;;;;5107203;28;20407;-68
2021/11/26 06:56:03;;;;;;;13.37;1.70;;;8.60;90.20;;;;;;5106114;28;20392;-70
2021/11/26 06:58:29;;;;;;;8.03;1.57;;;8.60;90.30;;;;;;5108217;28;20430;-69
2021/11/26 07:00:54;;;;;;;13.35;2.08;;;8.60;90.30;;;;;;5101107;28;20421;-69
2021/11/26 07:03:20;;;;;;;9.60;1.93;;;8.70;90.50;;;;;;5104898;28;20392;-69
2021/11/26 07:05:46;;;;;;;9.05;1.80;;;8.70;90.70;;;;;;5109406;28;20443;-69
2021/11/26 07:08:11;;;;;;;9.37;2.10;;;8.70;90.80;;;;;;5106904;28;20503;-70
2021/11/26 07:10:37;;;;;;;8.38;1.92;;;8.70;90.90;;;;;;5107405;28;20489;-69
2021/11/26 07:13:03;;;;;;;10.30;2.17;;;8.70;91.00;;;;;;5105356;28;20457;-69
2021/11/26 07:15:29;;;;;;;10.27;2.05;;;8.80;91.30;;;;;;5103395;28;20412;-70
2021/11/26 07:17:54;;;;;;;8.40;1.80;;;8.80;91.30;;;;;;5109606;28;20507;-69
2021/11/26 07:20:20;;;;;;;9.38;1.75;;;8.80;91.20;;;;;;5100443;28;20437;-69
2021/11/26 07:22:46;;;;;;;9.40;1.73;;;8.80;91.20;;;;;;5107323;28;20412;-70
2021/11/26 07:25:12;;;;;;;10.38;1.70;;;8.80;90.70;;;;;;5109299;28;20404;-69
2021/11/26 07:27:37;;;;;;;10.32;1.90;;;8.80;90.50;;;;;;5107947;28;20424;-69
2021/11/26 07:30:05;;;;;;;7.65;1.75;;;8.80;90.30;;;;;;5107081;28;20491;-68
2021/11/26 07:32:31;;;;;;;11.98;1.73;;;8.80;90.20;;;;;;5109011;28;20407;-69
2021/11/26 07:34:57;;;;;;;12.33;2.00;;;8.80;90.20;;;;;;5088104;28;20554;-70
2021/11/26 07:37:25;;;;;;;9.15;1.80;;;8.80;90.00;;;;;;5107912;28;20419;-69
2021/11/26 07:39:52;;;;;;;8.75;1.75;;;8.90;90.20;;;;;;5109012;28;20888;-71
2021/11/26 07:42:17;;;;;;;9.93;1.95;;;8.90;90.10;;;;;;5108607;28;20477;-70
2021/11/26 07:44:43;;;;;;;9.32;1.70;;;8.90;90.20;;;;;;5106433;28;20811;-69
2021/11/26 07:47:12;;;;;;;7.93;1.80;;;8.90;90.20;;;;;;5083939;28;20408;-69
2021/11/26 07:49:38;;;;;;;8.52;1.80;;;8.90;90.10;;;;;;5087951;28;20400;-69
2021/11/26 07:52:04;;;;;;;11.68;1.90;;;9.00;90.10;;;;;;5108844;28;20731;-69
2021/11/26 07:54:30;;;;;;;11.32;2.00;;;9.00;90.30;;;;;;5084329;28;20463;-69
2021/11/26 07:56:56;;;;;;;10.82;1.83;;;9.00;90.50;;;;;;5103170;28;20461;-69
2021/11/26 07:59:24;;;;;;;9.83;1.97;;;9.00;90.80;;;;;;5106425;28;20908;-69
2021/11/26 08:01:50;;;;;;;10.45;2.13;;;9.00;90.80;;;;;;5079822;28;20424;-70
2021/11/26 08:04:16;;;;;;;12.17;1.70;;;9.00;90.80;;;;;;5104683;28;20406;-69
2021/11/26 08:06:46;;;;;;;10.73;2.20;;;9.10;91.00;;;;;;5104288;28;20446;-70
2021/11/26 08:09:16;;;;;;;14.23;2.58;;;9.10;91.10;;;;;;5107135;28;20415;-70
2021/11/26 08:11:43;;;;;;;7.45;2.10;;;9.10;91.10;;;;;;5087329;28;20559;-68
2021/11/26 08:14:10;;;;;;;12.00;2.30;;;9.10;90.80;;;;;;5105587;28;20408;-69
2021/11/26 08:16:36;;;;;;;13.37;3.47;;;9.00;90.90;;;;;;5102333;28;20416;-67
2021/11/26 08:19:04;;;;;;;11.20;2.58;;;8.90;91.40;;;;;;5097803;28;20793;-67
2021/11/26 08:21:29;;;;;;;10.70;2.40;;;8.80;92.30;;;;;;5064149;28;20419;-69
2021/11/26 08:23:55;;;;;;;12.13;2.07;;;8.70;92.50;;;;;;5106205;28;20408;-69
2021/11/26 08:26:21;;;;;;;11.32;2.45;;;8.60;93.30;;;;;;5102274;28;20440;-69
2021/11/26 08:28:47;;;;;;;10.40;2.30;;;8.60;93.20;;;;;;5106702;28;20416;-69
2021/11/26 08:31:13;;;;;;;11.80;2.53;;;8.50;93.50;;;;;;5104297;28;20422;-68
2021/11/26 08:33:38;;;;;;;9.23;2.30;;;8.50;93.60;;;;;;5105616;28;20407;-68
2021/11/26 08:36:04;;;;;;;11.13;2.30;;;8.50;93.80;;;;;;5106080;28;20403;-68
2021/11/26 08:38:30;;;;;;;11.07;2.20;;;8.40;93.60;;;;;;5074604;28;20905;-70
2021/11/26 08:40:56;;;;;;;11.45;2.20;;;8.40;94.00;;;;;;5092348;28;20410;-68
2021/11/26 08:43:21;;;;;;;16.20;2.37;;;8.40;94.30;;;;;;5103202;28;20422;-69
2021/11/26 08:45:47;;;;;;;12.48;2.35;;;8.40;94.70;;;;;;5106184;28;20440;-69
2021/11/26 08:48:13;;;;;;;11.50;2.60;;;8.40;94.90;;;;;;5085540;28;20407;-69
2021/11/26 08:50:40;;;;;;;9.63;2.10;;;8.30;95.40;;;;;;5086747;28;20412;-70
2021/11/26 08:53:08;;;;;;;11.63;2.60;;;8.30;95.70;;;;;;5101576;28;20404;-69
2021/11/26 08:55:34;;;;;;;10.27;2.50;;;8.30;96.00;;;;;;5099272;28;20408;-69
2021/11/26 08:58:01;;;;;;;10.70;2.35;;;8.30;96.10;;;;;;5099563;28;20425;-69
2021/11/26 09:00:29;;;;;;;12.93;2.50;;;8.30;96.30;;;;;;5087782;28;20515;-68
2021/11/26 09:02:55;;;;;;;14.07;2.70;;;8.30;96.40;;;;;;5105089;28;20404;-69
2021/11/26 09:05:21;;;;;;;10.45;2.70;;;8.20;96.50;;;;;;5104517;28;20461;-67
2021/11/26 09:07:47;;;;;;;10.05;2.60;;;8.20;96.60;;;;;;5086183;28;20404;-70
2021/11/26 09:10:15;;;;;;;10.90;2.72;;;8.20;96.90;;;;;;5105573;28;20742;-68
2021/11/26 09:12:41;;;;;;;9.30;2.17;;;8.20;97.10;;;;;;5100452;28;20726;-68
2021/11/26 09:15:08;;;;;;;8.00;2.30;;;8.20;97.20;;;;;;5088293;28;20447;-67
2021/11/26 09:17:33;;;;;;;8.70;2.15;;;8.20;97.30;;;;;;5106385;28;20414;-68
2021/11/26 09:19:59;;;;;;;7.93;2.10;;;8.10;97.20;;;;;;5101824;28;20412;-69
2021/11/26 09:22:25;;;;;;;9.15;1.80;;;8.10;97.20;;;;;;5106146;28;20439;-68
2021/11/26 09:24:52;;;;;;;12.57;2.03;;;8.10;97.20;;;;;;5105004;28;20407;-70
2021/11/26 09:27:17;;;;;;;11.18;2.20;;;8.10;97.30;;;;;;5106305;28;20392;-70
2021/11/26 09:29:46;;;;;;;10.93;2.10;;;8.00;97.40;;;;;;5104181;28;20947;-69
2021/11/26 09:32:12;;;;;;;13.30;2.15;;;8.00;97.60;;;;;;5106808;28;20524;-69
2021/11/26 09:34:38;;;;;;;12.52;2.40;;;8.10;97.60;;;;;;5096747;28;20963;-69
2021/11/26 09:37:04;;;;;;;8.97;2.20;;;8.20;97.40;;;;;;5106478;28;20392;-70
2021/11/26 09:39:30;;;;;;;11.75;2.47;;;8.20;97.40;;;;;;5106655;28;20469;-69
2021/11/26 09:41:56;;;;;;;10.60;2.42;;;8.30;97.30;;;;;;5105662;28;20404;-69
2021/11/26 09:44:22;;;;;;;12.77;2.27;;;8.30;97.20;;;;;;5106338;28;20462;-71
2021/11/26 09:46:56;;;;;;;12.40;2.47;;;8.30;97.20;;;;;;5101950;28;20424;-70
2021/11/26 09:49:22;;;;;;;13.15;2.47;;;8.40;97.20;;;;;;5103213;28;20405;-70
2021/11/26 09:51:49;;;;;;;9.43;2.30;;;8.40;97.40;;;;;;5092879;28;20888;-69
2021/11/26 09:54:14;;;;;;;13.48;2.40;;;8.40;97.60;;;;;;5102722;28;20431;-70
2021/11/26 09:56:40;;;;;;;13.50;2.80;;;8.40;98.10;;;;;;5100954;28;20406;-69
2021/11/26 09:59:06;;;;;;;12.60;3.15;;;8.40;98.40;;;;;;5103636;28;20416;-69
2021/11/26 10:01:32;;;;;;;11.97;2.93;;;8.30;98.70;;;;;;5103795;28;20424;-68
2021/11/26 10:03:58;;;;;;;12.65;3.33;;;8.30;99.10;;;;;;5103857;28;20407;-69
2021/11/26 10:06:40;;;;;;;11.85;3.17;;;8.20;99.40;;;;;;5103221;28;20400;-68
2021/11/26 10:09:15;;;;;;;16.00;3.40;;;8.00;99.70;;;;;;5105122;28;20612;-68
2021/11/26 10:11:50;;;;;;;16.17;3.30;;;8.00;99.90;;;;;;5102395;28;20424;-68
2021/11/26 10:14:21;;;;;;;12.20;3.42;;;8.00;99.90;;;;;;5098989;28;20389;-69
2021/11/26 10:16:54;;;;;;;14.50;3.30;;;8.00;99.90;;;;;;5098937;28;20945;-69
2021/11/26 10:19:34;;;;;;;14.15;3.60;;;8.00;99.90;;;;;;5086516;28;20476;-69
2021/11/26 10:22:22;;;;;;;13.18;3.47;;;8.10;99.90;;;;;;5077781;28;20467;-70
2021/11/26 10:25:16;;;;;;;14.63;3.38;;;8.20;99.90;;;;;;5103714;28;20404;-69
2021/11/26 10:27:44;;;;;;;13.97;3.57;;;8.30;99.90;;;;;;5103561;28;20422;-69
2021/11/26 10:30:15;;;;;;;11.65;3.28;;;8.30;99.90;;;;;;5103456;28;20744;-68
2021/11/26 10:32:50;;;;;;;13.53;3.33;;;8.20;99.90;;;;;;5089518;28;20408;-69
2021/11/26 10:35:16;;;;;;;12.20;3.00;;;8.30;99.90;;;;;;5106478;28;20841;-70
2021/11/26 10:37:53;;;;;;;13.53;3.10;;;8.30;99.90;;;;;;5089422;28;20444;-68
2021/11/26 10:40:20;;;;;;;14.73;3.38;;;8.30;99.90;;;;;;5108224;28;20429;-69
2021/11/26 10:42:46;;;;;;;11.48;2.75;;;8.20;99.90;;;;;;5089194;28;20465;-70
2021/11/26 10:45:18;;;;;;;12.50;2.90;;;8.20;99.90;;;;;;5106666;28;20421;-70
2021/11/26 10:47:51;;;;;;;15.55;3.00;;;8.20;99.90;;;;;;5089784;28;20440;-70
2021/11/26 10:50:34;;;;;;;9.95;2.95;;;8.20;99.90;;;;;;5108168;28;20416;-71
2021/11/26 11:01:12;;;;;;;12.40;2.60;;;8.30;99.90;;;;;;5106153;28;20411;-71
2021/11/26 11:03:38;;;;;;;13.07;2.55;;;8.30;99.90;;;;;;5106939;28;20749;-70
2021/11/26 11:06:16;;;;;;;9.50;2.40;;;8.20;99.90;;;;;;5104338;28;20394;-71
2021/11/26 11:08:41;;;;;;;10.55;2.67;;;8.20;99.90;;;;;;5107006;28;20427;-70
2021/11/26 11:11:07;;;;;;;13.88;2.92;;;8.10;99.90;;;;;;5103584;28;20462;-70
2021/11/26 11:13:33;;;;;;;11.93;2.90;;;8.10;99.90;;;;;;5104126;28;20491;-70
2021/11/26 11:16:10;;;;;;;11.52;3.10;;;8.00;99.90;;;;;;5108156;28;20423;-69
2021/11/26 11:18:37;;;;;;;12.80;3.40;;;8.00;99.90;;;;;;5106157;28;20404;-70
2021/11/26 11:21:04;;;;;;;11.07;3.10;;;8.00;99.90;;;;;;5105643;28;20937;-70
2021/11/26 11:23:29;;;;;;;11.27;3.50;;;7.90;99.90;;;;;;5083463;28;20503;-70
2021/11/26 11:25:58;;;;;;;10.98;3.38;;;7.90;99.90;;;;;;5090396;28;20573;-71
2021/11/26 11:28:24;;;;;;;14.95;3.70;;;8.00;99.90;;;;;;5107801;28;20752;-70
2021/11/26 11:30:50;;;;;;;13.13;3.60;;;8.00;99.90;;;;;;5108987;28;20580;-70
2021/11/26 11:33:17;;;;;;;13.05;3.65;;;8.00;99.90;;;;;;5108335;28;20967;-70
2021/11/26 11:35:46;;;;;;;12.07;3.80;;;8.00;99.90;;;;;;5107890;28;20392;-71
2021/11/26 11:38:12;;;;;;;13.70;4.00;;;7.90;99.90;;;;;;5105813;28;20451;-71
2021/11/26 11:40:45;;;;;;;15.07;4.00;;;7.90;99.90;;;;;;5107779;28;20427;-69
2021/11/26 11:43:18;;;;;;;15.40;4.00;;;8.00;99.90;;;;;;5100837;28;20500;-70
2021/11/26 11:46:14;;;;;;;14.10;4.05;;;8.00;99.90;;;;;;5106360;28;20396;-70
2021/11/26 11:48:47;;;;;;;10.88;4.40;;;8.00;99.90;;;;;;5040576;28;20407;-69
2021/11/26 11:51:27;;;;;;;17.17;4.68;;;8.00;99.90;;;;;;5107202;28;20811;-69
2021/11/26 11:54:03;;;;;;;15.45;4.78;;;8.00;99.90;;;;;;5089011;28;20411;-70
2021/11/26 11:56:37;;;;;;;13.57;4.40;;;7.90;99.90;;;;;;5088630;28;21260;-69
2021/11/26 11:59:05;;;;;;;12.60;4.70;;;7.90;99.90;;;;;;5107743;28;20830;-69
2021/11/26 12:01:34;;;;;;;15.88;4.90;;;7.90;99.90;;;;;;5094985;28;20446;-68
2021/11/26 12:04:13;;;;;;;14.23;4.67;;;7.90;99.90;;;;;;5088062;28;20457;-70
2021/11/26 12:06:40;;;;;;;16.30;4.90;;;7.90;99.90;;;;;;5102316;28;21126;-69
2021/11/26 12:09:07;;;;;;;19.60;5.57;;;7.80;99.90;;;;;;5108263;28;20521;-70
2021/11/26 12:11:37;;;;;;;19.63;6.20;;;7.70;99.90;;;;;;5100841;28;21364;-70
2021/11/26 12:14:09;;;;;;;20.45;6.47;;;7.70;99.90;;;;;;5105941;28;20404;-69
2021/11/26 12:16:46;;;;;;;19.23;6.90;;;7.60;99.90;;;;;;5101328;28;20424;-68
2021/11/26 12:19:21;;;;;;;20.65;7.20;;;7.50;99.90;;;;;;5103113;28;20490;-69
2021/11/26 12:21:50;;;;;;;19.17;7.37;;;7.50;99.90;;;;;;5099551;28;20440;-70
2021/11/26 12:24:19;;;;;;;21.33;8.35;;;7.40;99.90;;;;;;5086744;28;20413;-69
2021/11/26 12:26:52;;;;;;;23.98;8.80;;;7.40;99.90;;;;;;5105862;28;20419;-70
2021/11/26 12:29:21;;;;;;;26.55;9.48;;;7.30;99.90;;;;;;5105442;28;20422;-69
2021/11/26 12:31:48;;;;;;;26.17;9.82;;;7.30;99.90;;;;;;5104513;28;20413;-70
2021/11/26 12:34:17;;;;;;;25.73;9.80;;;7.30;99.90;;;;;;5106691;28;20404;-69
2021/11/26 12:36:48;;;;;;;24.30;9.83;;;7.20;99.90;;;;;;5103776;28;20922;-69
2021/11/26 12:39:21;;;;;;;24.98;10.40;;;7.20;99.90;;;;;;5094239;28;20408;-69
2021/11/26 12:41:50;;;;;;;21.17;9.33;;;7.20;99.90;;;;;;5096034;28;20426;-69
2021/11/26 12:44:33;;;;;;;24.88;9.68;;;7.10;99.90;;;;;;5106282;28;20960;-70
2021/11/26 12:47:07;;;;;;;24.20;9.50;;;7.10;99.90;;;;;;5102368;28;20407;-69
2021/11/26 12:52:11;;;;;;;24.05;9.75;;;7.00;99.90;;;;;;5104261;28;20437;-69
2021/11/26 12:54:42;;;;;;;22.00;9.40;;;7.00;99.90;;;;;;5087646;28;20424;-67
2021/11/26 12:57:31;;;;;;;21.90;9.82;;;7.00;99.90;;;;;;5102553;28;20545;-68
2021/11/26 13:00:05;;;;;;;20.70;10.43;;;6.90;99.90;;;;;;5104878;28;20510;-68
2021/11/26 13:02:34;;;;;;;25.27;11.30;;;6.90;99.90;;;;;;5099510;28;20927;-68
2021/11/26 13:05:02;;;;;;;29.23;12.37;;;6.90;99.90;;;;;;5106228;28;20412;-67